SWA1664 KBWI-KRDU
Flight info
| Callsign | SWA1664 |
|---|---|
| Flight time | 1h 13m |
| Altitude | 22000 |
| Route | CONLE5 COLIN DCT TAPPA DCT HOUKY TAQLE3 |
| Aircraft | B738/M-SADE2E3GIJ4RWZ/LB1D1 |
Departure
| Time | 2026-05-07 01:38 |
|---|---|
| Airport | Baltimore/Washington International Thurgood Marshall Airport (KBWI) |
Arrival
| Time | 2026-05-07 02:51 |
|---|---|
| Airport | Raleigh-Durham International Airport (KRDU) |
| Time | Latitude | Longitude | Altitude | Speed | Heading |
|---|---|---|---|---|---|
| 2026-05-07 01:12 | 39.18005 | -76.67324 | 140 ft | 0 kts | 54° |
| 2026-05-07 01:13 | 39.18002 | -76.67329 | 140 ft | 0 kts | 54° |
| 2026-05-07 01:14 | 39.18005 | -76.67323 | 140 ft | 0 kts | 54° |
| 2026-05-07 01:31 | 39.18004 | -76.67324 | 140 ft | 0 kts | 54° |
| 2026-05-07 01:31 | 39.17998 | -76.67336 | 139 ft | 2 kts | 65° |
| 2026-05-07 01:31 | 39.17993 | -76.67354 | 137 ft | 2 kts | 78° |
| 2026-05-07 01:31 | 39.17992 | -76.67374 | 135 ft | 2 kts | 92° |
| 2026-05-07 01:32 | 39.17994 | -76.67393 | 134 ft | 2 kts | 105° |
| 2026-05-07 01:32 | 39.17999 | -76.67411 | 134 ft | 2 kts | 118° |
| 2026-05-07 01:32 | 39.18007 | -76.67427 | 134 ft | 2 kts | 131° |
| 2026-05-07 01:32 | 39.18016 | -76.67438 | 134 ft | 0 kts | 141° |
| 2026-05-07 01:33 | 39.18021 | -76.67442 | 134 ft | 0 kts | 144° |
| 2026-05-07 01:34 | 39.18018 | -76.67440 | 134 ft | 3 kts | 143° |
| 2026-05-07 01:35 | 39.17923 | -76.67354 | 135 ft | 24 kts | 147° |
| 2026-05-07 01:35 | 39.17732 | -76.67173 | 142 ft | 38 kts | 143° |
| 2026-05-07 01:35 | 39.17550 | -76.66983 | 139 ft | 22 kts | 118° |
| 2026-05-07 01:35 | 39.17530 | -76.66837 | 134 ft | 14 kts | 94° |
| 2026-05-07 01:36 | 39.17522 | -76.66685 | 141 ft | 18 kts | 94° |
| 2026-05-07 01:36 | 39.17564 | -76.66518 | 143 ft | 22 kts | 71° |
| 2026-05-07 01:36 | 39.17485 | -76.66297 | 140 ft | 33 kts | 120° |
| 2026-05-07 01:36 | 39.17441 | -76.65964 | 132 ft | 42 kts | 95° |
| 2026-05-07 01:37 | 39.17415 | -76.65550 | 119 ft | 46 kts | 109° |
| 2026-05-07 01:37 | 39.17286 | -76.65588 | 121 ft | 19 kts | 270° |
| 2026-05-07 01:37 | 39.17302 | -76.65941 | 133 ft | 68 kts | 274° |
| 2026-05-07 01:37 | 39.17352 | -76.66807 | 142 ft | 126 kts | 274° |
| 2026-05-07 01:38 | 39.17431 | -76.68167 | 320 ft | 177 kts | 274° |
| 2026-05-07 01:38 | 39.17480 | -76.69710 | 1551 ft | 172 kts | 275° |
| 2026-05-07 01:38 | 39.17536 | -76.71185 | 2512 ft | 170 kts | 276° |
| 2026-05-07 01:38 | 39.17634 | -76.72738 | 3224 ft | 180 kts | 276° |
| 2026-05-07 01:39 | 39.17523 | -76.74382 | 3833 ft | 199 kts | 250° |
| 2026-05-07 01:39 | 39.16628 | -76.75845 | 4510 ft | 223 kts | 218° |
| 2026-05-07 01:39 | 39.15167 | -76.76620 | 5338 ft | 242 kts | 195° |
| 2026-05-07 01:39 | 39.13438 | -76.76478 | 6156 ft | 266 kts | 166° |
| 2026-05-07 01:40 | 39.11795 | -76.75182 | 6772 ft | 287 kts | 145° |
| 2026-05-07 01:40 | 39.10353 | -76.73357 | 7019 ft | 294 kts | 140° |
| 2026-05-07 01:40 | 39.08950 | -76.71467 | 7027 ft | 293 kts | 141° |
| 2026-05-07 01:40 | 39.07491 | -76.69617 | 7026 ft | 292 kts | 142° |
| 2026-05-07 01:41 | 39.05998 | -76.67851 | 7021 ft | 289 kts | 144° |
| 2026-05-07 01:41 | 39.04502 | -76.66137 | 7022 ft | 294 kts | 143° |
| 2026-05-07 01:41 | 39.03029 | -76.64223 | 7140 ft | 308 kts | 138° |
| 2026-05-07 01:41 | 39.01627 | -76.62151 | 8240 ft | 307 kts | 136° |
| 2026-05-07 01:42 | 39.00269 | -76.60064 | 9274 ft | 308 kts | 136° |
| 2026-05-07 01:42 | 38.98900 | -76.57958 | 10130 ft | 315 kts | 137° |
| 2026-05-07 01:42 | 38.97459 | -76.55771 | 10851 ft | 326 kts | 137° |
| 2026-05-07 01:42 | 38.95945 | -76.53524 | 11519 ft | 339 kts | 138° |
| 2026-05-07 01:43 | 38.94220 | -76.51419 | 12137 ft | 345 kts | 150° |
| 2026-05-07 01:43 | 38.92116 | -76.50047 | 12782 ft | 342 kts | 170° |
| 2026-05-07 01:43 | 38.89790 | -76.49645 | 13449 ft | 338 kts | 187° |
| 2026-05-07 01:43 | 38.87424 | -76.49985 | 13933 ft | 347 kts | 196° |
| 2026-05-07 01:44 | 38.85043 | -76.50615 | 14018 ft | 351 kts | 200° |
| 2026-05-07 01:44 | 38.82729 | -76.51543 | 14038 ft | 347 kts | 205° |
| 2026-05-07 01:44 | 38.80477 | -76.52640 | 14007 ft | 346 kts | 207° |
| 2026-05-07 01:44 | 38.78257 | -76.53786 | 14009 ft | 345 kts | 207° |
| 2026-05-07 01:45 | 38.76014 | -76.54948 | 14025 ft | 347 kts | 207° |
| 2026-05-07 01:45 | 38.73753 | -76.56101 | 14091 ft | 357 kts | 207° |
| 2026-05-07 01:45 | 38.71462 | -76.57246 | 15204 ft | 352 kts | 207° |
| 2026-05-07 01:45 | 38.69174 | -76.58372 | 15972 ft | 357 kts | 208° |
| 2026-05-07 01:46 | 38.66832 | -76.59497 | 16824 ft | 359 kts | 207° |
| 2026-05-07 01:46 | 38.64484 | -76.60589 | 17586 ft | 363 kts | 208° |
| 2026-05-07 01:46 | 38.62103 | -76.61688 | 18234 ft | 369 kts | 208° |
| 2026-05-07 01:46 | 38.59676 | -76.62804 | 18813 ft | 375 kts | 208° |
| 2026-05-07 01:47 | 38.57213 | -76.63940 | 18899 ft | 376 kts | 207° |
| 2026-05-07 01:47 | 38.54756 | -76.65063 | 18890 ft | 371 kts | 207° |
| 2026-05-07 01:47 | 38.52344 | -76.66164 | 18902 ft | 372 kts | 207° |
| 2026-05-07 01:47 | 38.49888 | -76.67291 | 18891 ft | 374 kts | 208° |
| 2026-05-07 01:48 | 38.47419 | -76.68430 | 19474 ft | 380 kts | 208° |
| 2026-05-07 01:48 | 38.44949 | -76.69560 | 20329 ft | 379 kts | 207° |
| 2026-05-07 01:48 | 38.42431 | -76.70540 | 21109 ft | 384 kts | 202° |
| 2026-05-07 01:48 | 38.39728 | -76.71094 | 21720 ft | 398 kts | 193° |
| 2026-05-07 01:49 | 38.36955 | -76.71082 | 21888 ft | 397 kts | 186° |
| 2026-05-07 01:49 | 38.34272 | -76.70728 | 21900 ft | 385 kts | 182° |
| 2026-05-07 01:49 | 38.31629 | -76.70229 | 21900 ft | 379 kts | 181° |
| 2026-05-07 01:49 | 38.29019 | -76.69706 | 21895 ft | 379 kts | 180° |
| 2026-05-07 01:50 | 38.26417 | -76.69203 | 21901 ft | 381 kts | 181° |
| 2026-05-07 01:50 | 38.23793 | -76.68723 | 21888 ft | 379 kts | 181° |
| 2026-05-07 01:50 | 38.21180 | -76.68266 | 21900 ft | 380 kts | 182° |
| 2026-05-07 01:50 | 38.18564 | -76.67827 | 21901 ft | 380 kts | 182° |
| 2026-05-07 01:51 | 38.15933 | -76.67491 | 21899 ft | 374 kts | 186° |
| 2026-05-07 01:51 | 38.13390 | -76.67602 | 21897 ft | 362 kts | 198° |
| 2026-05-07 01:51 | 38.10971 | -76.68407 | 21910 ft | 352 kts | 209° |
| 2026-05-07 01:51 | 38.08779 | -76.69719 | 21908 ft | 346 kts | 217° |
| 2026-05-07 01:52 | 38.06766 | -76.71374 | 21901 ft | 341 kts | 223° |
| 2026-05-07 01:52 | 38.04948 | -76.73266 | 21900 ft | 336 kts | 229° |
| 2026-05-07 01:52 | 38.03329 | -76.75347 | 21903 ft | 334 kts | 233° |
| 2026-05-07 01:52 | 38.01762 | -76.77567 | 21902 ft | 334 kts | 234° |
| 2026-05-07 01:53 | 38.00246 | -76.79764 | 21896 ft | 332 kts | 233° |
| 2026-05-07 01:53 | 37.98722 | -76.81968 | 21902 ft | 331 kts | 233° |
| 2026-05-07 01:53 | 37.97033 | -76.83978 | 21900 ft | 340 kts | 223° |
| 2026-05-07 01:53 | 37.94967 | -76.85500 | 21903 ft | 349 kts | 212° |
| 2026-05-07 01:54 | 37.92681 | -76.86669 | 21911 ft | 355 kts | 208° |
| 2026-05-07 01:54 | 37.91142 | -76.87360 | 21910 ft | 355 kts | 207° |
| 2026-05-07 01:54 | 37.87985 | -76.88715 | 21909 ft | 356 kts | 206° |
| 2026-05-07 01:54 | 37.85651 | -76.89714 | 21911 ft | 355 kts | 207° |
| 2026-05-07 01:55 | 37.83323 | -76.90730 | 21910 ft | 357 kts | 207° |
| 2026-05-07 01:55 | 37.80965 | -76.91777 | 21910 ft | 356 kts | 207° |
| 2026-05-07 01:55 | 37.78649 | -76.92813 | 21915 ft | 355 kts | 207° |
| 2026-05-07 01:55 | 37.76297 | -76.93870 | 21919 ft | 354 kts | 208° |
| 2026-05-07 01:56 | 37.73977 | -76.94920 | 21920 ft | 357 kts | 207° |
| 2026-05-07 01:56 | 37.71633 | -76.95982 | 21914 ft | 357 kts | 207° |
| 2026-05-07 01:56 | 37.69304 | -76.97035 | 21929 ft | 356 kts | 208° |
| 2026-05-07 01:56 | 37.66978 | -76.98083 | 21921 ft | 357 kts | 208° |
| 2026-05-07 01:57 | 37.64640 | -76.99140 | 21920 ft | 356 kts | 208° |
| 2026-05-07 01:57 | 37.62320 | -77.00185 | 21916 ft | 354 kts | 208° |
| 2026-05-07 01:57 | 37.59976 | -77.01244 | 21916 ft | 357 kts | 208° |
| 2026-05-07 01:57 | 37.57630 | -77.02305 | 21911 ft | 355 kts | 208° |
| 2026-05-07 01:58 | 37.55313 | -77.03350 | 21911 ft | 356 kts | 208° |
| 2026-05-07 01:58 | 37.52966 | -77.04409 | 21909 ft | 357 kts | 208° |
| 2026-05-07 01:58 | 37.50620 | -77.05463 | 21908 ft | 357 kts | 208° |
| 2026-05-07 01:58 | 37.48274 | -77.06516 | 21907 ft | 356 kts | 208° |
| 2026-05-07 01:59 | 37.45954 | -77.07556 | 21908 ft | 357 kts | 208° |
| 2026-05-07 01:59 | 37.43610 | -77.08609 | 21905 ft | 356 kts | 208° |
| 2026-05-07 01:59 | 37.41270 | -77.09658 | 21907 ft | 358 kts | 208° |
| 2026-05-07 01:59 | 37.38909 | -77.10718 | 21903 ft | 358 kts | 208° |
| 2026-05-07 02:00 | 37.36571 | -77.11764 | 21904 ft | 358 kts | 208° |
| 2026-05-07 02:00 | 37.34235 | -77.12810 | 21906 ft | 357 kts | 208° |
| 2026-05-07 02:00 | 37.31908 | -77.13908 | 21908 ft | 356 kts | 211° |
| 2026-05-07 02:00 | 37.29620 | -77.15166 | 21908 ft | 356 kts | 213° |
| 2026-05-07 02:01 | 37.27387 | -77.16479 | 21906 ft | 351 kts | 214° |
| 2026-05-07 02:01 | 37.25176 | -77.17804 | 21904 ft | 354 kts | 214° |
| 2026-05-07 02:01 | 37.22938 | -77.19146 | 21905 ft | 355 kts | 213° |
| 2026-05-07 02:01 | 37.20722 | -77.20457 | 21908 ft | 355 kts | 214° |
| 2026-05-07 02:02 | 37.18483 | -77.21769 | 21905 ft | 355 kts | 213° |
| 2026-05-07 02:02 | 37.16232 | -77.23081 | 21908 ft | 354 kts | 214° |
| 2026-05-07 02:02 | 37.14058 | -77.24470 | 21905 ft | 352 kts | 217° |
| 2026-05-07 02:02 | 37.11897 | -77.26041 | 21912 ft | 367 kts | 219° |
| 2026-05-07 02:03 | 37.09664 | -77.27743 | 21911 ft | 384 kts | 219° |
| 2026-05-07 02:03 | 37.07339 | -77.29521 | 21908 ft | 400 kts | 219° |
| 2026-05-07 02:03 | 37.04882 | -77.31383 | 21908 ft | 416 kts | 218° |
| 2026-05-07 02:03 | 37.02359 | -77.33279 | 21904 ft | 430 kts | 218° |
| 2026-05-07 02:04 | 36.99763 | -77.35228 | 21908 ft | 441 kts | 218° |
| 2026-05-07 02:04 | 36.97140 | -77.37185 | 21904 ft | 441 kts | 218° |
| 2026-05-07 02:04 | 36.94517 | -77.39133 | 21904 ft | 439 kts | 218° |
| 2026-05-07 02:04 | 36.91851 | -77.41107 | 21907 ft | 439 kts | 218° |
| 2026-05-07 02:05 | 36.89214 | -77.43059 | 21909 ft | 440 kts | 218° |
| 2026-05-07 02:05 | 36.86603 | -77.44991 | 21915 ft | 440 kts | 217° |
| 2026-05-07 02:05 | 36.83942 | -77.46963 | 21919 ft | 441 kts | 217° |
| 2026-05-07 02:05 | 36.81291 | -77.48923 | 21922 ft | 442 kts | 217° |
| 2026-05-07 02:06 | 36.78657 | -77.50867 | 21919 ft | 442 kts | 217° |
| 2026-05-07 02:06 | 36.76014 | -77.52818 | 21928 ft | 442 kts | 217° |
| 2026-05-07 02:06 | 36.73361 | -77.54808 | 21927 ft | 438 kts | 219° |
| 2026-05-07 02:06 | 36.70867 | -77.56992 | 21931 ft | 437 kts | 223° |
| 2026-05-07 02:07 | 36.68514 | -77.59326 | 21932 ft | 434 kts | 225° |
| 2026-05-07 02:07 | 36.63888 | -77.64175 | 21931 ft | 433 kts | 226° |
| 2026-05-07 02:07 | 36.61585 | -77.66591 | 21929 ft | 438 kts | 225° |
| 2026-05-07 02:08 | 36.59253 | -77.69003 | 21935 ft | 436 kts | 225° |
| 2026-05-07 02:08 | 36.56908 | -77.71400 | 21938 ft | 437 kts | 225° |
| 2026-05-07 02:08 | 36.54563 | -77.73769 | 21931 ft | 435 kts | 225° |
| 2026-05-07 02:08 | 36.52193 | -77.76145 | 21929 ft | 437 kts | 224° |
| 2026-05-07 02:09 | 36.49825 | -77.78503 | 21928 ft | 433 kts | 224° |
| 2026-05-07 02:09 | 36.47468 | -77.80843 | 21934 ft | 439 kts | 224° |
| 2026-05-07 02:09 | 36.45072 | -77.83215 | 21935 ft | 437 kts | 224° |
| 2026-05-07 02:09 | 36.42686 | -77.85567 | 21934 ft | 436 kts | 224° |
| 2026-05-07 02:10 | 36.40318 | -77.87901 | 21939 ft | 437 kts | 224° |
| 2026-05-07 02:10 | 36.37920 | -77.90262 | 21940 ft | 437 kts | 224° |
| 2026-05-07 02:10 | 36.35559 | -77.92584 | 21943 ft | 436 kts | 224° |
| 2026-05-07 02:10 | 36.33170 | -77.94933 | 21947 ft | 440 kts | 224° |
| 2026-05-07 02:11 | 36.30785 | -77.97272 | 21940 ft | 436 kts | 224° |
| 2026-05-07 02:11 | 36.28392 | -77.99620 | 21944 ft | 440 kts | 224° |
| 2026-05-07 02:11 | 36.26008 | -78.01996 | 21945 ft | 437 kts | 226° |
| 2026-05-07 02:11 | 36.23838 | -78.04583 | 21942 ft | 431 kts | 233° |
| 2026-05-07 02:12 | 36.22102 | -78.07543 | 21948 ft | 426 kts | 243° |
| 2026-05-07 02:12 | 36.20707 | -78.10786 | 21941 ft | 423 kts | 247° |
| 2026-05-07 02:12 | 36.19497 | -78.14085 | 21944 ft | 424 kts | 249° |
| 2026-05-07 02:12 | 36.18373 | -78.17465 | 21948 ft | 421 kts | 250° |
| 2026-05-07 02:13 | 36.17294 | -78.20842 | 21951 ft | 422 kts | 251° |
| 2026-05-07 02:13 | 36.16231 | -78.24192 | 21950 ft | 423 kts | 251° |
| 2026-05-07 02:13 | 36.15197 | -78.27612 | 21952 ft | 423 kts | 253° |
| 2026-05-07 02:13 | 36.14378 | -78.31056 | 21954 ft | 421 kts | 257° |
| 2026-05-07 02:14 | 36.13691 | -78.34611 | 21953 ft | 419 kts | 259° |
| 2026-05-07 02:14 | 36.13103 | -78.37985 | 21953 ft | 422 kts | 259° |
| 2026-05-07 02:14 | 36.12510 | -78.41518 | 21953 ft | 420 kts | 259° |
| 2026-05-07 02:14 | 36.11911 | -78.45089 | 21954 ft | 421 kts | 259° |
| 2026-05-07 02:15 | 36.11312 | -78.48635 | 21949 ft | 421 kts | 259° |
| 2026-05-07 02:15 | 36.10708 | -78.52168 | 21950 ft | 422 kts | 259° |
| 2026-05-07 02:15 | 36.10092 | -78.55723 | 21947 ft | 421 kts | 259° |
| 2026-05-07 02:15 | 36.09472 | -78.59271 | 21949 ft | 424 kts | 258° |
| 2026-05-07 02:16 | 36.08850 | -78.62807 | 21940 ft | 416 kts | 259° |
| 2026-05-07 02:16 | 36.08255 | -78.66178 | 21940 ft | 395 kts | 258° |
| 2026-05-07 02:16 | 36.07685 | -78.69408 | 21936 ft | 375 kts | 258° |
| 2026-05-07 02:16 | 36.07143 | -78.72485 | 21934 ft | 354 kts | 258° |
| 2026-05-07 02:17 | 36.06637 | -78.75359 | 21938 ft | 337 kts | 258° |
| 2026-05-07 02:17 | 36.06152 | -78.78108 | 21941 ft | 319 kts | 258° |
| 2026-05-07 02:17 | 36.05689 | -78.80733 | 21934 ft | 303 kts | 258° |
| 2026-05-07 02:17 | 36.05256 | -78.83210 | 21932 ft | 286 kts | 257° |
| 2026-05-07 02:18 | 36.04850 | -78.85550 | 21943 ft | 271 kts | 257° |
| 2026-05-07 02:18 | 36.04464 | -78.87767 | 21934 ft | 257 kts | 258° |
| 2026-05-07 02:18 | 36.04097 | -78.89867 | 21935 ft | 250 kts | 258° |
| 2026-05-07 02:18 | 36.03727 | -78.91979 | 21942 ft | 256 kts | 257° |
| 2026-05-07 02:19 | 36.03345 | -78.94164 | 21942 ft | 257 kts | 258° |
| 2026-05-07 02:19 | 36.02974 | -78.96297 | 21937 ft | 256 kts | 258° |
| 2026-05-07 02:19 | 36.02604 | -78.98428 | 21938 ft | 254 kts | 257° |
| 2026-05-07 02:19 | 36.02227 | -79.00585 | 21937 ft | 255 kts | 257° |
| 2026-05-07 02:20 | 36.01852 | -79.02731 | 21936 ft | 254 kts | 258° |
| 2026-05-07 02:20 | 36.01484 | -79.04837 | 21938 ft | 255 kts | 258° |
| 2026-05-07 02:20 | 36.01108 | -79.07007 | 21934 ft | 256 kts | 258° |
| 2026-05-07 02:20 | 36.00737 | -79.09148 | 21938 ft | 256 kts | 258° |
| 2026-05-07 02:21 | 36.00364 | -79.11290 | 21936 ft | 256 kts | 258° |
| 2026-05-07 02:21 | 35.99993 | -79.13425 | 21934 ft | 255 kts | 258° |
| 2026-05-07 02:21 | 35.99622 | -79.15572 | 21935 ft | 255 kts | 257° |
| 2026-05-07 02:21 | 35.99252 | -79.17707 | 21930 ft | 254 kts | 258° |
| 2026-05-07 02:22 | 35.98878 | -79.19865 | 21930 ft | 254 kts | 258° |
| 2026-05-07 02:22 | 35.98509 | -79.21993 | 21935 ft | 254 kts | 258° |
| 2026-05-07 02:22 | 35.98143 | -79.24125 | 21936 ft | 254 kts | 258° |
| 2026-05-07 02:22 | 35.97777 | -79.26254 | 21934 ft | 255 kts | 258° |
| 2026-05-07 02:23 | 35.97409 | -79.28381 | 21935 ft | 252 kts | 258° |
| 2026-05-07 02:23 | 35.97042 | -79.30506 | 21939 ft | 255 kts | 257° |
| 2026-05-07 02:23 | 35.96664 | -79.32635 | 21937 ft | 256 kts | 258° |
| 2026-05-07 02:23 | 35.96304 | -79.34757 | 21928 ft | 254 kts | 261° |
| 2026-05-07 02:24 | 35.96386 | -79.36941 | 21930 ft | 257 kts | 287° |
| 2026-05-07 02:24 | 35.97453 | -79.38776 | 21940 ft | 279 kts | 317° |
| 2026-05-07 02:24 | 35.99272 | -79.39691 | 21939 ft | 298 kts | 346° |
| 2026-05-07 02:24 | 36.01410 | -79.39323 | 21943 ft | 324 kts | 18° |
| 2026-05-07 02:25 | 36.03268 | -79.37660 | 21938 ft | 344 kts | 46° |
| 2026-05-07 02:25 | 36.04410 | -79.35066 | 21942 ft | 347 kts | 72° |
| 2026-05-07 02:25 | 36.04990 | -79.32140 | 21931 ft | 348 kts | 79° |
| 2026-05-07 02:25 | 36.05457 | -79.29211 | 21934 ft | 348 kts | 79° |
| 2026-05-07 02:26 | 36.05925 | -79.26270 | 21935 ft | 349 kts | 79° |
| 2026-05-07 02:26 | 36.06394 | -79.23367 | 21932 ft | 346 kts | 79° |
| 2026-05-07 02:26 | 36.06864 | -79.20453 | 21931 ft | 344 kts | 79° |
| 2026-05-07 02:26 | 36.07331 | -79.17539 | 21933 ft | 346 kts | 79° |
| 2026-05-07 02:27 | 36.07793 | -79.14648 | 21933 ft | 346 kts | 80° |
| 2026-05-07 02:27 | 36.08264 | -79.11746 | 21929 ft | 348 kts | 79° |
| 2026-05-07 02:27 | 36.08744 | -79.08811 | 21931 ft | 350 kts | 78° |
| 2026-05-07 02:27 | 36.09220 | -79.05839 | 21931 ft | 348 kts | 79° |
| 2026-05-07 02:28 | 36.09683 | -79.02935 | 21938 ft | 345 kts | 79° |
| 2026-05-07 02:28 | 36.10155 | -79.00025 | 21946 ft | 345 kts | 78° |
| 2026-05-07 02:28 | 36.10636 | -78.97101 | 21941 ft | 348 kts | 79° |
| 2026-05-07 02:28 | 36.11124 | -78.94177 | 21937 ft | 351 kts | 78° |
| 2026-05-07 02:29 | 36.11610 | -78.91255 | 21937 ft | 348 kts | 79° |
| 2026-05-07 02:29 | 36.12087 | -78.88345 | 21937 ft | 346 kts | 79° |
| 2026-05-07 02:29 | 36.12569 | -78.85381 | 21937 ft | 349 kts | 78° |
| 2026-05-07 02:29 | 36.13050 | -78.82471 | 21941 ft | 348 kts | 78° |
| 2026-05-07 02:30 | 36.13529 | -78.79539 | 21940 ft | 347 kts | 79° |
| 2026-05-07 02:30 | 36.14006 | -78.76623 | 21941 ft | 349 kts | 79° |
| 2026-05-07 02:30 | 36.14496 | -78.73661 | 21939 ft | 350 kts | 78° |
| 2026-05-07 02:30 | 36.14980 | -78.70709 | 21945 ft | 349 kts | 78° |
| 2026-05-07 02:31 | 36.15447 | -78.67786 | 21954 ft | 350 kts | 79° |
| 2026-05-07 02:31 | 36.15920 | -78.64821 | 21951 ft | 350 kts | 78° |
| 2026-05-07 02:31 | 36.16378 | -78.61867 | 21949 ft | 350 kts | 78° |
| 2026-05-07 02:31 | 36.16828 | -78.58907 | 21950 ft | 351 kts | 79° |
| 2026-05-07 02:32 | 36.17279 | -78.55952 | 21953 ft | 351 kts | 78° |
| 2026-05-07 02:32 | 36.17727 | -78.52970 | 21955 ft | 351 kts | 78° |
| 2026-05-07 02:32 | 36.18176 | -78.49985 | 21715 ft | 357 kts | 78° |
| 2026-05-07 02:32 | 36.18643 | -78.46932 | 21227 ft | 361 kts | 78° |
| 2026-05-07 02:33 | 36.19106 | -78.43906 | 20756 ft | 363 kts | 78° |
| 2026-05-07 02:33 | 36.19572 | -78.40797 | 20082 ft | 372 kts | 78° |
| 2026-05-07 02:33 | 36.20042 | -78.37606 | 19374 ft | 382 kts | 78° |
| 2026-05-07 02:33 | 36.20516 | -78.34363 | 18659 ft | 389 kts | 79° |
| 2026-05-07 02:34 | 36.21002 | -78.31068 | 17939 ft | 395 kts | 78° |
| 2026-05-07 02:34 | 36.21501 | -78.27697 | 17215 ft | 400 kts | 79° |
| 2026-05-07 02:34 | 36.22014 | -78.24287 | 16490 ft | 404 kts | 79° |
| 2026-05-07 02:34 | 36.22535 | -78.20902 | 15776 ft | 407 kts | 78° |
| 2026-05-07 02:35 | 36.23079 | -78.17420 | 15048 ft | 410 kts | 78° |
| 2026-05-07 02:35 | 36.23723 | -78.14019 | 14449 ft | 405 kts | 69° |
| 2026-05-07 02:35 | 36.25067 | -78.11098 | 14043 ft | 380 kts | 44° |
| 2026-05-07 02:35 | 36.27064 | -78.09200 | 13521 ft | 351 kts | 17° |
| 2026-05-07 02:36 | 36.29326 | -78.08477 | 13135 ft | 320 kts | 357° |
| 2026-05-07 02:36 | 36.31478 | -78.08405 | 12805 ft | 297 kts | 349° |
| 2026-05-07 02:36 | 36.33472 | -78.08574 | 12453 ft | 281 kts | 345° |
| 2026-05-07 02:36 | 36.35353 | -78.08936 | 12214 ft | 262 kts | 340° |
| 2026-05-07 02:37 | 36.37085 | -78.09448 | 11899 ft | 248 kts | 333° |
| 2026-05-07 02:37 | 36.38619 | -78.10265 | 11464 ft | 237 kts | 322° |
| 2026-05-07 02:37 | 36.39955 | -78.11398 | 10959 ft | 231 kts | 313° |
| 2026-05-07 02:37 | 36.40908 | -78.12898 | 10430 ft | 221 kts | 284° |
| 2026-05-07 02:38 | 36.40879 | -78.14741 | 9908 ft | 219 kts | 247° |
| 2026-05-07 02:38 | 36.39836 | -78.16126 | 9401 ft | 229 kts | 212° |
| 2026-05-07 02:38 | 36.38314 | -78.16789 | 8999 ft | 232 kts | 201° |
| 2026-05-07 02:38 | 36.36752 | -78.17258 | 8970 ft | 230 kts | 200° |
| 2026-05-07 02:39 | 36.35177 | -78.17718 | 8968 ft | 234 kts | 200° |
| 2026-05-07 02:39 | 36.33581 | -78.18184 | 8969 ft | 233 kts | 200° |
| 2026-05-07 02:39 | 36.32039 | -78.18705 | 8980 ft | 229 kts | 211° |
| 2026-05-07 02:39 | 36.30892 | -78.19935 | 8951 ft | 216 kts | 245° |
| 2026-05-07 02:40 | 36.30375 | -78.21779 | 8764 ft | 239 kts | 258° |
| 2026-05-07 02:40 | 36.30040 | -78.23838 | 8534 ft | 243 kts | 260° |
| 2026-05-07 02:40 | 36.29742 | -78.25898 | 8322 ft | 245 kts | 261° |
| 2026-05-07 02:40 | 36.29452 | -78.27967 | 8072 ft | 243 kts | 260° |
| 2026-05-07 02:41 | 36.29166 | -78.30035 | 7833 ft | 243 kts | 261° |
| 2026-05-07 02:41 | 36.28880 | -78.32086 | 7601 ft | 243 kts | 261° |
| 2026-05-07 02:41 | 36.28331 | -78.34054 | 7353 ft | 242 kts | 238° |
| 2026-05-07 02:41 | 36.27074 | -78.35401 | 7136 ft | 242 kts | 215° |
| 2026-05-07 02:42 | 36.25566 | -78.36338 | 6903 ft | 238 kts | 211° |
| 2026-05-07 02:42 | 36.24073 | -78.37177 | 6670 ft | 233 kts | 210° |
| 2026-05-07 02:42 | 36.22609 | -78.37993 | 6435 ft | 228 kts | 211° |
| 2026-05-07 02:42 | 36.21162 | -78.38794 | 6188 ft | 224 kts | 210° |
| 2026-05-07 02:43 | 36.19760 | -78.39574 | 5940 ft | 220 kts | 211° |
| 2026-05-07 02:43 | 36.18354 | -78.40350 | 5694 ft | 217 kts | 211° |
| 2026-05-07 02:43 | 36.17046 | -78.41193 | 5425 ft | 212 kts | 218° |
| 2026-05-07 02:43 | 36.15810 | -78.42236 | 5076 ft | 213 kts | 220° |
| 2026-05-07 02:44 | 36.14638 | -78.43288 | 5000 ft | 204 kts | 220° |
| 2026-05-07 02:44 | 36.13494 | -78.44312 | 5004 ft | 203 kts | 221° |
| 2026-05-07 02:44 | 36.12344 | -78.45334 | 4997 ft | 202 kts | 220° |
| 2026-05-07 02:44 | 36.11203 | -78.46355 | 4996 ft | 204 kts | 221° |
| 2026-05-07 02:45 | 36.10039 | -78.47398 | 4998 ft | 206 kts | 220° |
| 2026-05-07 02:45 | 36.08875 | -78.48438 | 4990 ft | 203 kts | 220° |
| 2026-05-07 02:45 | 36.07756 | -78.49454 | 4985 ft | 201 kts | 224° |
| 2026-05-07 02:45 | 36.06914 | -78.50813 | 4992 ft | 198 kts | 247° |
| 2026-05-07 02:46 | 36.06414 | -78.52422 | 4738 ft | 203 kts | 251° |
| 2026-05-07 02:46 | 36.05943 | -78.54095 | 4383 ft | 205 kts | 251° |
| 2026-05-07 02:46 | 36.05432 | -78.55730 | 4044 ft | 207 kts | 244° |
| 2026-05-07 02:46 | 36.04648 | -78.57214 | 3699 ft | 209 kts | 232° |
| 2026-05-07 02:47 | 36.03646 | -78.58538 | 3358 ft | 210 kts | 228° |
| 2026-05-07 02:47 | 36.02618 | -78.59802 | 3044 ft | 208 kts | 227° |
| 2026-05-07 02:47 | 36.01623 | -78.61034 | 2969 ft | 195 kts | 228° |
| 2026-05-07 02:47 | 36.00704 | -78.62170 | 2972 ft | 179 kts | 228° |
| 2026-05-07 02:48 | 35.99846 | -78.63218 | 2987 ft | 172 kts | 227° |
| 2026-05-07 02:48 | 35.98960 | -78.64316 | 2998 ft | 190 kts | 229° |
| 2026-05-07 02:48 | 35.98035 | -78.65490 | 2983 ft | 188 kts | 227° |
| 2026-05-07 02:48 | 35.97051 | -78.66706 | 2929 ft | 206 kts | 227° |
| 2026-05-07 02:49 | 35.96000 | -78.67999 | 2645 ft | 225 kts | 227° |
| 2026-05-07 02:49 | 35.94845 | -78.69422 | 2330 ft | 239 kts | 226° |
| 2026-05-07 02:49 | 35.93641 | -78.70865 | 1990 ft | 234 kts | 226° |
| 2026-05-07 02:49 | 35.92596 | -78.72182 | 1704 ft | 201 kts | 227° |
| 2026-05-07 02:50 | 35.91664 | -78.73341 | 1451 ft | 177 kts | 226° |
| 2026-05-07 02:50 | 35.90818 | -78.74347 | 1145 ft | 164 kts | 225° |
| 2026-05-07 02:50 | 35.90042 | -78.75300 | 871 ft | 154 kts | 226° |
| 2026-05-07 02:50 | 35.89271 | -78.76272 | 748 ft | 162 kts | 225° |
| 2026-05-07 02:51 | 35.88480 | -78.77241 | 583 ft | 160 kts | 225° |
| 2026-05-07 02:51 | 35.87677 | -78.78231 | 430 ft | 159 kts | 224° |
| 2026-05-07 02:51 | 35.87043 | -78.79022 | 415 ft | 81 kts | 224° |
| 2026-05-07 02:51 | 35.86798 | -78.79333 | 405 ft | 33 kts | 245° |
| 2026-05-07 02:52 | 35.86775 | -78.79498 | 399 ft | 10 kts | 281° |
| 2026-05-07 02:52 | 35.86813 | -78.79496 | 399 ft | 6 kts | 43° |
| 2026-05-07 02:52 | 35.86879 | -78.79415 | 402 ft | 23 kts | 46° |
| 2026-05-07 02:52 | 35.86997 | -78.79264 | 408 ft | 23 kts | 46° |
| 2026-05-07 02:53 | 35.87102 | -78.79134 | 414 ft | 19 kts | 43° |
| 2026-05-07 02:53 | 35.87194 | -78.79029 | 417 ft | 17 kts | 44° |
| 2026-05-07 02:53 | 35.87273 | -78.78928 | 420 ft | 15 kts | 43° |
| 2026-05-07 02:53 | 35.87338 | -78.78947 | 420 ft | 9 kts | 315° |
| 2026-05-07 02:54 | 35.87367 | -78.78978 | 418 ft | 1 kts | 320° |
| 2026-05-07 02:54 | 35.87368 | -78.78979 | 418 ft | 0 kts | 320° |